createdAt,value
2018-07-20T00:01:03.890Z,23.13
2018-07-20T00:03:30.236Z,23.14
2018-07-20T00:05:56.670Z,23.13
2018-07-20T00:08:23.034Z,23.15
2018-07-20T00:10:49.368Z,23.11
2018-07-20T00:13:16.682Z,23.13
2018-07-20T00:15:43.013Z,23.12
2018-07-20T00:18:09.444Z,23.12
2018-07-20T00:20:35.832Z,23.10
2018-07-20T00:23:02.183Z,23.09
2018-07-20T00:25:28.593Z,23.08
2018-07-20T00:27:54.926Z,23.08
2018-07-20T00:30:21.322Z,23.07
2018-07-20T00:32:47.768Z,23.11
2018-07-20T00:35:14.098Z,23.05
2018-07-20T00:37:40.479Z,23.07
2018-07-20T00:40:06.871Z,23.07
2018-07-20T00:42:33.305Z,23.03
2018-07-20T00:44:59.729Z,23.03
2018-07-20T00:47:26.172Z,23.05
2018-07-20T00:49:52.499Z,23.06
2018-07-20T00:52:18.999Z,23.03
2018-07-20T00:54:45.469Z,23.00
2018-07-20T00:57:12.999Z,23.01
2018-07-20T00:59:39.423Z,23.01
2018-07-20T01:02:05.827Z,23.01
2018-07-20T01:04:32.263Z,22.94
2018-07-20T01:06:59.668Z,22.87
2018-07-20T01:09:26.023Z,22.79
2018-07-20T01:11:52.460Z,22.69
2018-07-20T01:14:18.843Z,22.67
2018-07-20T01:16:45.162Z,22.64
2018-07-20T01:19:11.567Z,22.61
2018-07-20T01:21:37.969Z,22.56
2018-07-20T01:24:04.571Z,22.53
2018-07-20T01:26:30.894Z,22.51
2018-07-20T01:28:57.221Z,22.53
2018-07-20T01:31:23.548Z,22.48
2018-07-20T01:33:49.917Z,22.41
2018-07-20T01:36:16.459Z,22.44
2018-07-20T01:38:42.793Z,22.46
2018-07-20T01:41:09.115Z,22.47
2018-07-20T01:43:35.530Z,22.44
2018-07-20T01:46:01.850Z,22.47
2018-07-20T01:48:28.235Z,22.46
2018-07-20T01:50:54.562Z,22.42
2018-07-20T01:53:20.882Z,22.43
2018-07-20T01:55:47.234Z,22.43
2018-07-20T01:58:13.620Z,22.44
2018-07-20T02:00:39.939Z,22.43
2018-07-20T02:03:06.307Z,22.43
2018-07-20T02:05:32.656Z,22.46
2018-07-20T02:07:58.965Z,22.44
2018-07-20T02:10:25.291Z,22.42
2018-07-20T02:12:51.618Z,22.42
2018-07-20T02:15:17.948Z,22.46
2018-07-20T02:17:44.315Z,22.41
2018-07-20T02:20:10.683Z,22.42
2018-07-20T02:22:37.011Z,22.44
2018-07-20T02:25:03.332Z,22.44
2018-07-20T02:27:29.664Z,22.43
2018-07-20T02:29:56.065Z,22.42
2018-07-20T02:32:22.483Z,22.41
2018-07-20T02:34:48.823Z,22.42
2018-07-20T02:37:15.154Z,22.41
2018-07-20T02:39:41.484Z,22.40
2018-07-20T02:42:07.806Z,22.39
2018-07-20T02:44:34.137Z,22.41
2018-07-20T02:47:00.502Z,22.42
2018-07-20T02:49:26.861Z,22.37
2018-07-20T02:51:53.193Z,22.42
2018-07-20T02:54:19.562Z,22.37
2018-07-20T02:56:45.908Z,22.38
2018-07-20T02:59:12.236Z,22.38
2018-07-20T03:01:38.563Z,22.37
2018-07-20T03:04:04.882Z,22.39
2018-07-20T03:06:31.215Z,22.38
2018-07-20T03:08:57.606Z,22.35
2018-07-20T03:11:23.947Z,22.35
2018-07-20T03:13:50.311Z,22.39
2018-07-20T03:16:16.655Z,22.48
2018-07-20T03:18:43.038Z,22.53
2018-07-20T03:21:09.441Z,22.61
2018-07-20T03:23:35.726Z,22.64
2018-07-20T03:26:02.060Z,22.67
2018-07-20T03:28:28.458Z,22.72
2018-07-20T03:30:54.800Z,22.72
2018-07-20T03:33:21.132Z,22.78
2018-07-20T03:35:47.495Z,22.78
2018-07-20T03:38:13.830Z,22.71
2018-07-20T03:40:40.163Z,22.65
2018-07-20T03:43:06.500Z,22.63
2018-07-20T03:45:32.835Z,22.70
2018-07-20T03:47:59.183Z,22.75
2018-07-20T03:50:25.557Z,22.77
2018-07-20T03:52:51.893Z,22.82
2018-07-20T03:55:18.222Z,22.86
2018-07-20T03:57:44.554Z,22.84
2018-07-20T04:00:10.884Z,22.81
2018-07-20T04:02:37.190Z,22.82
2018-07-20T04:05:03.547Z,22.84
2018-07-20T04:07:29.874Z,22.85
2018-07-20T04:09:56.240Z,22.81
2018-07-20T04:12:22.570Z,22.79
2018-07-20T04:14:48.894Z,22.77
2018-07-20T04:17:15.203Z,22.72
2018-07-20T04:19:41.594Z,22.76
2018-07-20T04:22:07.946Z,22.77
2018-07-20T04:24:34.321Z,22.83
2018-07-20T04:27:00.652Z,22.81
2018-07-20T04:29:27.016Z,22.78
2018-07-20T04:31:53.343Z,22.87
2018-07-20T04:34:19.672Z,22.81
2018-07-20T04:36:45.991Z,22.80
2018-07-20T04:39:12.320Z,22.79
2018-07-20T04:41:38.642Z,22.82
2018-07-20T04:44:04.964Z,22.88
2018-07-20T04:46:31.433Z,22.85
2018-07-20T04:48:57.799Z,22.90
2018-07-20T04:51:24.131Z,22.84
2018-07-20T04:53:50.463Z,22.85
2018-07-20T04:56:16.926Z,22.86
2018-07-20T04:58:43.275Z,22.83
2018-07-20T05:01:09.686Z,22.88
2018-07-20T05:03:36.028Z,22.91
2018-07-20T05:06:02.380Z,22.88
2018-07-20T05:08:28.719Z,22.87
2018-07-20T05:10:55.068Z,22.94
2018-07-20T05:13:21.392Z,22.95
2018-07-20T05:15:47.728Z,22.88
2018-07-20T05:18:14.090Z,22.94
2018-07-20T05:20:40.412Z,22.96
2018-07-20T05:23:06.761Z,22.96
2018-07-20T05:25:33.147Z,23.00
2018-07-20T05:27:59.506Z,23.00
2018-07-20T05:30:25.878Z,23.03
2018-07-20T05:32:52.374Z,22.97
2018-07-20T05:35:18.767Z,23.00
2018-07-20T05:37:45.088Z,23.03
2018-07-20T05:40:11.426Z,23.05
2018-07-20T05:42:37.796Z,23.01
2018-07-20T05:45:04.168Z,23.01
2018-07-20T05:47:30.559Z,22.97
2018-07-20T05:49:56.962Z,23.06
2018-07-20T05:52:23.288Z,23.03
2018-07-20T05:54:49.619Z,23.13
2018-07-20T05:57:15.946Z,23.18
2018-07-20T05:59:42.336Z,23.21
2018-07-20T06:02:08.690Z,23.18
2018-07-20T06:04:35.053Z,23.18
2018-07-20T06:07:01.413Z,23.21
2018-07-20T06:09:27.842Z,23.22
2018-07-20T06:11:54.224Z,23.17
2018-07-20T06:14:20.572Z,23.24
2018-07-20T06:16:46.897Z,23.30
2018-07-20T06:19:13.245Z,23.36
2018-07-20T06:21:39.649Z,23.37
2018-07-20T06:24:06.072Z,23.28
2018-07-20T06:26:32.472Z,23.34
2018-07-20T06:28:58.824Z,23.36
2018-07-20T06:31:25.228Z,23.39
2018-07-20T06:33:51.702Z,23.43
2018-07-20T06:36:18.070Z,23.38
2018-07-20T06:38:44.544Z,23.35
2018-07-20T06:41:10.910Z,23.43
2018-07-20T06:43:37.321Z,23.42
2018-07-20T06:46:03.763Z,23.46
2018-07-20T06:48:30.217Z,23.49
2018-07-20T06:50:56.588Z,23.50
2018-07-20T06:53:22.994Z,23.46
2018-07-20T06:55:49.516Z,23.46
2018-07-20T06:58:15.866Z,23.58
2018-07-20T07:00:42.250Z,23.58
2018-07-20T07:03:08.892Z,23.54
2018-07-20T07:05:35.289Z,23.54
2018-07-20T07:08:01.656Z,23.73
2018-07-20T07:10:28.029Z,23.68
2018-07-20T07:12:54.435Z,23.70
2018-07-20T07:15:20.849Z,23.71
2018-07-20T07:17:47.217Z,23.69
2018-07-20T07:20:13.656Z,23.72
2018-07-20T07:22:40.013Z,23.72
2018-07-20T07:25:06.409Z,23.81
2018-07-20T07:27:32.991Z,23.87
2018-07-20T07:29:59.407Z,23.94
2018-07-20T07:32:25.773Z,23.89
2018-07-20T07:34:52.307Z,23.91
2018-07-20T07:37:18.659Z,24.02
2018-07-20T07:39:45.047Z,24.11
2018-07-20T07:42:11.450Z,24.06
2018-07-20T07:44:37.843Z,24.12
2018-07-20T07:47:04.204Z,24.23
2018-07-20T07:49:30.544Z,24.29
2018-07-20T07:51:56.936Z,24.31
2018-07-20T07:54:23.327Z,24.32
2018-07-20T07:56:49.728Z,24.30
2018-07-20T07:59:16.154Z,24.35
2018-07-20T08:01:42.586Z,24.39
2018-07-20T08:04:08.925Z,24.42
2018-07-20T08:06:35.303Z,24.45
2018-07-20T08:09:01.673Z,24.44
2018-07-20T08:11:28.052Z,24.49
2018-07-20T08:13:54.431Z,24.45
2018-07-20T08:16:20.766Z,24.43
2018-07-20T08:18:47.152Z,24.50
2018-07-20T08:21:13.481Z,24.49
2018-07-20T08:23:40.516Z,24.55
2018-07-20T08:26:06.993Z,24.54
2018-07-20T08:28:33.355Z,24.54
2018-07-20T08:30:59.757Z,24.57
2018-07-20T08:33:26.084Z,24.55
2018-07-20T08:35:52.505Z,24.58
2018-07-20T08:38:18.899Z,24.58
2018-07-20T08:40:45.275Z,24.58
2018-07-20T08:43:11.719Z,24.58
2018-07-20T08:45:38.148Z,24.58
2018-07-20T08:48:04.510Z,24.62
2018-07-20T08:50:30.880Z,24.63
2018-07-20T08:52:57.239Z,24.55
2018-07-20T08:55:23.596Z,24.58
2018-07-20T08:57:49.956Z,24.51
2018-07-20T09:00:16.290Z,24.51
2018-07-20T09:02:42.674Z,24.54
2018-07-20T09:05:09.006Z,24.56
2018-07-20T09:07:35.343Z,24.57
2018-07-20T09:10:01.703Z,24.62
2018-07-20T09:12:28.098Z,24.50
2018-07-20T09:14:54.497Z,24.55
2018-07-20T09:17:20.866Z,24.57
2018-07-20T09:19:47.195Z,24.54
2018-07-20T09:22:13.561Z,24.56
2018-07-20T09:24:39.945Z,24.49
2018-07-20T09:27:06.261Z,24.53
2018-07-20T09:29:32.617Z,24.57
2018-07-20T09:31:58.978Z,24.56
2018-07-20T09:34:25.316Z,24.50
2018-07-20T09:36:52.419Z,24.49
2018-07-20T09:39:18.763Z,24.55
2018-07-20T09:41:45.159Z,24.58
2018-07-20T09:44:11.586Z,24.56
2018-07-20T09:46:37.953Z,24.59
2018-07-20T09:49:04.393Z,24.61
2018-07-20T09:51:30.697Z,24.54
2018-07-20T09:53:57.072Z,24.60
2018-07-20T09:56:23.431Z,24.61
2018-07-20T09:58:49.812Z,24.59
2018-07-20T10:01:16.147Z,24.62
2018-07-20T10:03:42.517Z,24.61
2018-07-20T10:06:08.877Z,24.65
2018-07-20T10:08:35.199Z,24.65
2018-07-20T10:11:02.481Z,24.63
2018-07-20T10:13:28.819Z,24.66
2018-07-20T10:15:55.182Z,24.62
2018-07-20T10:18:21.575Z,24.64
2018-07-20T10:20:47.969Z,24.64
2018-07-20T10:23:14.338Z,24.70
2018-07-20T10:25:40.817Z,24.62
2018-07-20T10:28:07.124Z,24.61
2018-07-20T10:30:33.467Z,24.69
2018-07-20T10:32:59.806Z,24.71
2018-07-20T10:35:26.253Z,24.66
2018-07-20T10:37:52.816Z,24.70
2018-07-20T10:40:19.192Z,24.71
2018-07-20T10:42:45.514Z,24.70
2018-07-20T10:45:11.859Z,24.77
2018-07-20T10:47:38.218Z,24.74
2018-07-20T10:50:04.562Z,24.70
2018-07-20T10:52:30.931Z,24.73
2018-07-20T10:54:57.284Z,24.75
2018-07-20T10:57:23.639Z,24.77
2018-07-20T10:59:49.988Z,24.79
2018-07-20T11:02:16.350Z,24.75
2018-07-20T11:04:42.768Z,24.76
2018-07-20T11:07:09.297Z,24.77
2018-07-20T11:09:35.706Z,24.73
2018-07-20T11:12:02.088Z,24.73
2018-07-20T11:14:28.489Z,24.74
2018-07-20T11:16:54.841Z,24.72
2018-07-20T11:19:21.252Z,24.65
2018-07-20T11:21:47.608Z,24.66
2018-07-20T11:24:13.974Z,24.73
2018-07-20T11:26:40.368Z,24.68
2018-07-20T11:29:06.708Z,24.72
2018-07-20T11:31:33.047Z,24.72
2018-07-20T11:33:59.408Z,24.69
2018-07-20T11:36:25.753Z,24.64
2018-07-20T11:38:52.087Z,24.66
2018-07-20T11:41:18.507Z,24.63
2018-07-20T11:43:44.972Z,24.63
2018-07-20T11:46:11.350Z,24.66
2018-07-20T11:48:37.695Z,24.74
2018-07-20T11:51:04.088Z,24.69
2018-07-20T11:53:30.416Z,24.71
2018-07-20T11:55:56.896Z,24.70
2018-07-20T11:58:23.356Z,24.72
2018-07-20T12:00:49.761Z,24.78
2018-07-20T12:03:16.126Z,24.89
2018-07-20T12:05:42.563Z,24.85
2018-07-20T12:08:08.941Z,24.89
2018-07-20T12:10:35.290Z,24.92
2018-07-20T12:13:01.670Z,24.99
2018-07-20T12:15:28.053Z,24.90
2018-07-20T12:17:54.419Z,24.99
2018-07-20T12:20:20.987Z,24.92
2018-07-20T12:22:47.394Z,24.94
2018-07-20T12:25:13.785Z,24.95
2018-07-20T12:27:40.128Z,24.84
2018-07-20T12:30:06.509Z,24.94
2018-07-20T12:32:32.831Z,24.82
2018-07-20T12:34:59.348Z,24.94
2018-07-20T12:37:25.687Z,24.93
2018-07-20T12:39:52.034Z,24.94
2018-07-20T12:42:18.502Z,24.93
2018-07-20T12:44:44.903Z,24.95
2018-07-20T12:47:11.237Z,24.94
2018-07-20T12:49:37.638Z,24.94
2018-07-20T12:52:04.048Z,24.99
2018-07-20T12:54:30.452Z,24.99
2018-07-20T12:56:56.828Z,25.00
2018-07-20T12:59:23.222Z,25.01
2018-07-20T13:01:49.570Z,25.03
2018-07-20T13:04:16.010Z,24.99
2018-07-20T13:06:42.356Z,24.98
2018-07-20T13:09:08.791Z,25.04
2018-07-20T13:11:35.223Z,25.01
2018-07-20T13:14:01.611Z,24.95
2018-07-20T13:16:27.988Z,25.03
2018-07-20T13:18:54.377Z,25.01
2018-07-20T13:21:20.777Z,24.98
2018-07-20T13:23:47.195Z,25.07
2018-07-20T13:26:13.566Z,25.03
2018-07-20T13:28:39.971Z,24.97
2018-07-20T13:31:06.325Z,24.98
2018-07-20T13:33:32.683Z,24.99
2018-07-20T13:35:59.029Z,25.12
2018-07-20T13:38:25.359Z,25.02
2018-07-20T13:40:51.795Z,25.03
2018-07-20T13:43:18.203Z,25.01
2018-07-20T13:45:44.551Z,25.04
2018-07-20T13:48:10.887Z,25.05
2018-07-20T13:50:37.246Z,25.01
2018-07-20T13:53:03.659Z,25.04
2018-07-20T13:55:29.974Z,25.04
2018-07-20T13:57:56.412Z,25.15
2018-07-20T14:00:22.775Z,25.10
2018-07-20T14:02:49.169Z,25.10
2018-07-20T14:05:15.524Z,25.04
2018-07-20T14:07:41.836Z,25.03
2018-07-20T14:10:08.200Z,25.04
2018-07-20T14:12:34.542Z,25.07
2018-07-20T14:15:00.894Z,25.15
2018-07-20T14:17:27.260Z,25.14
2018-07-20T14:19:53.625Z,25.09
2018-07-20T14:22:19.955Z,25.13
2018-07-20T14:24:46.307Z,25.07
2018-07-20T14:27:12.685Z,25.18
2018-07-20T14:29:39.056Z,25.15
2018-07-20T14:32:05.497Z,25.15
2018-07-20T14:34:31.815Z,25.12
2018-07-20T14:36:58.175Z,25.01
2018-07-20T14:39:24.506Z,25.06
2018-07-20T14:41:50.864Z,25.08
2018-07-20T14:44:17.196Z,25.08
2018-07-20T14:46:43.572Z,25.18
2018-07-20T14:49:09.940Z,25.16
2018-07-20T14:51:36.299Z,25.31
2018-07-20T14:54:02.626Z,25.27
2018-07-20T14:56:28.984Z,25.27
2018-07-20T14:58:55.339Z,25.24
2018-07-20T15:01:21.721Z,25.28
2018-07-20T15:03:48.052Z,25.30
2018-07-20T15:06:14.384Z,25.20
2018-07-20T15:08:40.839Z,25.22
2018-07-20T15:11:07.112Z,25.32
2018-07-20T15:13:33.441Z,25.15
2018-07-20T15:15:59.804Z,25.25
2018-07-20T15:18:26.139Z,25.28
2018-07-20T15:20:52.495Z,25.28
2018-07-20T15:23:18.867Z,25.23
2018-07-20T15:25:45.196Z,25.31
2018-07-20T15:28:11.557Z,25.18
2018-07-20T15:30:37.894Z,25.07
2018-07-20T15:33:04.272Z,25.20
2018-07-20T15:35:30.680Z,24.97
2018-07-20T15:37:57.018Z,25.04
2018-07-20T15:40:23.342Z,25.05
2018-07-20T15:42:49.747Z,24.95
2018-07-20T15:45:16.115Z,24.97
2018-07-20T15:47:42.501Z,24.99
2018-07-20T15:50:08.842Z,25.05
2018-07-20T15:55:01.707Z,25.18
2018-07-20T15:57:28.033Z,25.04
2018-07-20T15:59:54.471Z,25.13
2018-07-20T16:02:20.828Z,25.02
2018-07-20T16:04:47.165Z,24.85
2018-07-20T16:07:13.591Z,24.79
2018-07-20T16:09:39.928Z,24.76
2018-07-20T16:12:06.255Z,24.82
2018-07-20T16:14:32.589Z,24.85
2018-07-20T16:16:58.995Z,24.82
2018-07-20T16:19:25.366Z,24.87
2018-07-20T16:21:51.716Z,24.70
2018-07-20T16:24:18.048Z,24.68
2018-07-20T16:26:44.380Z,24.69
2018-07-20T16:29:10.709Z,24.61
2018-07-20T16:31:37.051Z,24.76
2018-07-20T16:34:03.371Z,24.73
2018-07-20T16:36:29.707Z,24.69
2018-07-20T16:38:56.062Z,24.57
2018-07-20T16:41:22.402Z,24.59
2018-07-20T16:43:48.821Z,24.64
2018-07-20T16:46:15.161Z,24.61
2018-07-20T16:48:41.495Z,24.58
2018-07-20T16:51:07.822Z,24.57
2018-07-20T16:53:34.220Z,24.55
2018-07-20T16:56:00.553Z,24.50
2018-07-20T16:58:26.916Z,24.54
2018-07-20T17:00:53.246Z,24.51
2018-07-20T17:03:19.578Z,24.49
2018-07-20T17:05:45.916Z,24.56
2018-07-20T17:08:12.240Z,24.58
2018-07-20T17:10:38.638Z,24.61
2018-07-20T17:13:04.928Z,24.56
2018-07-20T17:15:31.267Z,24.63
2018-07-20T17:17:57.601Z,24.70
2018-07-20T17:20:23.984Z,24.69
2018-07-20T17:22:50.313Z,24.77
2018-07-20T17:25:16.673Z,24.74
2018-07-20T17:27:43.019Z,24.77
2018-07-20T17:30:09.371Z,24.84
2018-07-20T17:32:35.714Z,24.83
2018-07-20T17:35:02.109Z,24.86
2018-07-20T17:37:28.552Z,24.82
2018-07-20T17:39:54.954Z,24.91
2018-07-20T17:42:21.293Z,24.87
2018-07-20T17:44:47.690Z,24.91
2018-07-20T17:47:14.029Z,24.95
2018-07-20T17:49:40.389Z,24.95
2018-07-20T17:52:06.721Z,24.90
2018-07-20T17:54:33.068Z,24.94
2018-07-20T17:56:59.450Z,24.92
2018-07-20T17:59:25.799Z,24.95
2018-07-20T18:01:52.130Z,24.87
2018-07-20T18:04:18.461Z,24.94
2018-07-20T18:06:44.796Z,24.98
2018-07-20T18:09:11.208Z,24.97
2018-07-20T18:11:37.538Z,24.99
2018-07-20T18:14:03.869Z,24.99
2018-07-20T18:16:30.248Z,25.00
2018-07-20T18:18:56.663Z,24.99
2018-07-20T18:21:22.998Z,24.97
2018-07-20T18:23:49.327Z,24.88
2018-07-20T18:26:15.706Z,24.94
2018-07-20T18:28:42.035Z,24.86
2018-07-20T18:31:08.362Z,24.83
2018-07-20T18:33:34.760Z,24.80
2018-07-20T18:36:01.048Z,24.84
2018-07-20T18:38:27.410Z,24.77
2018-07-20T18:40:53.756Z,24.79
2018-07-20T18:43:20.118Z,24.73
2018-07-20T18:45:46.481Z,24.74
2018-07-20T18:48:13.024Z,24.75
2018-07-20T18:50:39.356Z,24.65
2018-07-20T18:53:05.781Z,24.65
2018-07-20T18:55:32.084Z,24.57
2018-07-20T18:57:58.415Z,24.59
2018-07-20T19:00:24.777Z,24.58
2018-07-20T19:02:51.148Z,24.63
2018-07-20T19:05:17.545Z,24.62
2018-07-20T19:07:43.957Z,24.66
2018-07-20T19:10:10.361Z,24.55
2018-07-20T19:12:36.701Z,24.55
2018-07-20T19:15:03.057Z,24.56
2018-07-20T19:17:29.438Z,24.54
2018-07-20T19:19:55.788Z,24.48
2018-07-20T19:22:22.130Z,24.51
2018-07-20T19:24:48.507Z,24.50
2018-07-20T19:27:14.864Z,24.49
2018-07-20T19:29:41.285Z,24.49
2018-07-20T19:32:07.689Z,24.47
2018-07-20T19:34:34.048Z,24.46
2018-07-20T19:37:00.453Z,24.42
2018-07-20T19:39:26.869Z,24.44
2018-07-20T19:41:53.258Z,24.38
2018-07-20T19:44:19.656Z,24.40
2018-07-20T19:46:46.046Z,24.36
2018-07-20T19:49:12.367Z,24.40
2018-07-20T19:51:38.687Z,24.40
2018-07-20T19:54:05.054Z,24.40
2018-07-20T19:56:31.490Z,24.32
2018-07-20T19:58:57.913Z,24.33
2018-07-20T20:01:24.352Z,24.32
2018-07-20T20:03:50.681Z,24.25
2018-07-20T20:06:17.047Z,24.35
2018-07-20T20:08:43.373Z,24.29
2018-07-20T20:11:09.775Z,24.29
2018-07-20T20:13:36.107Z,24.26
2018-07-20T20:16:02.435Z,24.23
2018-07-20T20:18:28.803Z,24.21
2018-07-20T20:20:55.136Z,24.21
2018-07-20T20:23:21.494Z,24.25
2018-07-20T20:25:47.796Z,24.20
2018-07-20T20:28:14.161Z,24.19
2018-07-20T20:30:40.492Z,24.18
2018-07-20T20:33:06.827Z,24.18
2018-07-20T20:35:33.200Z,24.18
2018-07-20T20:37:59.617Z,24.16
2018-07-20T20:40:25.988Z,24.14
2018-07-20T20:42:52.426Z,24.12
2018-07-20T20:45:18.754Z,24.14
2018-07-20T20:47:45.141Z,24.11
2018-07-20T20:50:11.471Z,24.09
2018-07-20T20:52:37.859Z,24.08
2018-07-20T20:55:04.208Z,24.08
2018-07-20T20:57:30.536Z,24.05
2018-07-20T20:59:56.912Z,24.06
2018-07-20T21:02:23.323Z,24.08
2018-07-20T21:04:49.662Z,24.10
2018-07-20T21:07:16.034Z,24.06
2018-07-20T21:09:42.367Z,24.04
2018-07-20T21:12:08.777Z,24.04
2018-07-20T21:14:35.092Z,24.04
2018-07-20T21:17:01.455Z,24.10
2018-07-20T21:19:27.831Z,24.08
2018-07-20T21:21:54.160Z,24.03
2018-07-20T21:24:20.477Z,23.99
2018-07-20T21:26:46.811Z,24.00
2018-07-20T21:29:13.166Z,23.99
2018-07-20T21:31:39.506Z,23.96
2018-07-20T21:34:05.929Z,24.00
2018-07-20T21:36:33.285Z,23.98
2018-07-20T21:38:59.614Z,23.95
2018-07-20T21:41:25.983Z,23.96
2018-07-20T21:43:52.324Z,23.94
2018-07-20T21:46:18.720Z,23.90
2018-07-20T21:48:45.114Z,23.91
2018-07-20T21:51:11.444Z,23.92
2018-07-20T21:53:37.803Z,23.90
2018-07-20T21:56:04.169Z,23.88
2018-07-20T21:58:30.574Z,23.90
2018-07-20T22:00:56.908Z,23.90
2018-07-20T22:03:23.295Z,23.89
2018-07-20T22:05:49.661Z,23.85
2018-07-20T22:08:16.038Z,23.86
2018-07-20T22:10:42.366Z,23.84
2018-07-20T22:13:08.729Z,23.83
2018-07-20T22:15:35.088Z,23.85
2018-07-20T22:18:01.465Z,23.83
2018-07-20T22:20:27.850Z,23.81
2018-07-20T22:22:54.202Z,23.79
2018-07-20T22:25:20.564Z,23.77
2018-07-20T22:27:46.919Z,23.80
2018-07-20T22:30:13.243Z,23.81
2018-07-20T22:32:39.620Z,23.80
2018-07-20T22:35:06.038Z,23.77
2018-07-20T22:37:32.378Z,23.73
2018-07-20T22:39:58.778Z,23.74
2018-07-20T22:42:25.235Z,23.74
2018-07-20T22:44:51.628Z,23.72
2018-07-20T22:47:18.107Z,23.72
2018-07-20T22:49:44.452Z,23.71
2018-07-20T22:52:10.834Z,23.68
2018-07-20T22:54:37.193Z,23.67
2018-07-20T22:57:03.519Z,23.70
2018-07-20T22:59:29.870Z,23.69
2018-07-20T23:01:56.200Z,23.65
2018-07-20T23:04:22.538Z,23.68
2018-07-20T23:06:48.909Z,23.67
2018-07-20T23:09:15.295Z,23.68
2018-07-20T23:11:41.626Z,23.68
2018-07-20T23:14:08.007Z,23.70
2018-07-20T23:16:34.365Z,23.68
2018-07-20T23:19:00.758Z,23.64
2018-07-20T23:21:27.107Z,23.64
2018-07-20T23:23:53.455Z,23.59
2018-07-20T23:26:19.789Z,23.59
2018-07-20T23:28:46.150Z,23.58
2018-07-20T23:31:12.519Z,23.60
2018-07-20T23:33:38.852Z,23.54
2018-07-20T23:36:05.215Z,23.54
2018-07-20T23:38:31.572Z,23.50
2018-07-20T23:40:57.922Z,23.54
2018-07-20T23:43:24.314Z,23.49
2018-07-20T23:45:50.659Z,23.47
2018-07-20T23:48:16.983Z,23.49
2018-07-20T23:50:43.335Z,23.46
2018-07-20T23:53:09.694Z,23.51
2018-07-20T23:55:36.026Z,23.44
2018-07-20T23:58:02.390Z,23.49
